Hollywood Park, Texas
Current Conditions -  °F | °C
As of 9:51 AM on Wednesday 28 Jan 2015 (Local Time) from KSAT Reporting Station
Few Clouds Few Clouds  
Wind Chill: 69°   Ceiling: Unl
Heat Index: 69°   Visibility: 10mi
Dew Point: 37°   Wind: 7mph
Humidity: 31%   Direction: 220°SW
Pressure: 30.19"   Gusts: NA
Location:  29.5876°N, 98.474°W
Report Text: KSAT 281551Z 22006KT 10SM FEW100 FEW250 21/03 A3019 RMK AO2 SLP209 T02060028
Loading
Personal Weather Stations






























Interactive Weather Map New forecast layout! Learn more

10-Day Weather Forecast

Advertisements
Track Severe Weather on mobile